createdAt,value
2023-05-06T00:00:47.792Z,1001.3
2023-05-06T00:02:04.069Z,1001.3
2023-05-06T00:03:19.394Z,1001.3
2023-05-06T00:04:35.676Z,1001.4
2023-05-06T00:05:51.967Z,1001.2
2023-05-06T00:07:08.256Z,1001.2
2023-05-06T00:08:24.553Z,1001.2
2023-05-06T00:09:40.849Z,1001.2
2023-05-06T00:10:57.142Z,1001.2
2023-05-06T00:12:13.430Z,1001.2
2023-05-06T00:13:29.744Z,1001.2
2023-05-06T00:14:46.021Z,1001.2
2023-05-06T00:16:02.309Z,1001.2
2023-05-06T00:17:18.602Z,1001.2
2023-05-06T00:18:34.893Z,1001.2
2023-05-06T00:19:50.213Z,1001.2
2023-05-06T00:21:06.504Z,1001.2
2023-05-06T00:22:22.800Z,1001.3
2023-05-06T00:23:39.103Z,1001.3
2023-05-06T00:24:55.383Z,1001.2
2023-05-06T00:26:11.701Z,1001.2
2023-05-06T00:27:27.970Z,1001.2
2023-05-06T00:28:44.278Z,1001.2
2023-05-06T00:30:00.560Z,1001.2
2023-05-06T00:31:16.849Z,1001.2
2023-05-06T00:32:33.152Z,1001.1
2023-05-06T00:33:49.464Z,1001.1
2023-05-06T00:35:05.732Z,1001.2
2023-05-06T00:36:21.045Z,1001.2
2023-05-06T00:37:37.332Z,1001.2
2023-05-06T00:38:53.626Z,1001.3
2023-05-06T00:40:09.935Z,1001.2
2023-05-06T00:41:26.242Z,1001.3
2023-05-06T00:42:42.524Z,1001.3
2023-05-06T00:43:58.807Z,1001.2
2023-05-06T00:45:15.096Z,1001.2
2023-05-06T00:46:31.392Z,1001.2
2023-05-06T00:47:47.699Z,1001.2
2023-05-06T00:49:03.991Z,1001.2
2023-05-06T00:50:20.270Z,1001.1
2023-05-06T00:51:36.567Z,1001.1
2023-05-06T00:52:51.887Z,1001.2
2023-05-06T00:54:08.187Z,1001.1
2023-05-06T00:55:24.459Z,1001.1
2023-05-06T00:56:40.759Z,1001.1
2023-05-06T00:57:57.047Z,1001.1
2023-05-06T00:59:13.365Z,1001.1
2023-05-06T01:00:29.641Z,1001.1
2023-05-06T01:01:45.947Z,1001.1
2023-05-06T01:03:02.223Z,1001.2
2023-05-06T01:04:18.523Z,1001.1
2023-05-06T01:05:34.823Z,1001.1
2023-05-06T01:06:51.140Z,1001.1
2023-05-06T01:08:07.396Z,1001.1
2023-05-06T01:09:22.710Z,1001.1
2023-05-06T01:10:39.019Z,1001.1
2023-05-06T01:11:55.295Z,1001.1
2023-05-06T01:13:11.604Z,1001.1
2023-05-06T01:14:27.890Z,1001.1
2023-05-06T01:15:44.191Z,1001.1
2023-05-06T01:17:00.472Z,1001.1
2023-05-06T01:18:16.765Z,1001.1
2023-05-06T01:19:33.089Z,1001.2
2023-05-06T01:20:49.349Z,1001.1
2023-05-06T01:22:05.000Z,1001.2
2023-05-06T01:23:21.957Z,1001.1
2023-05-06T01:24:38.255Z,1001.1
2023-05-06T01:25:53.559Z,1001.1
2023-05-06T01:27:09.839Z,1001.1
2023-05-06T01:28:26.144Z,1001.1
2023-05-06T01:29:42.452Z,1001.1
2023-05-06T01:30:58.725Z,1001.1
2023-05-06T01:32:15.041Z,1001
2023-05-06T01:33:31.317Z,1001.1
2023-05-06T01:34:47.634Z,1001.1
2023-05-06T01:36:03.911Z,1001.1
2023-05-06T01:37:20.206Z,1001.2
2023-05-06T01:38:36.485Z,1001.2
2023-05-06T01:39:52.784Z,1001.2
2023-05-06T01:41:09.086Z,1001.2
2023-05-06T01:42:24.379Z,1001.2
2023-05-06T01:43:40.677Z,1001.2
2023-05-06T01:44:56.987Z,1001.3
2023-05-06T01:46:13.269Z,1001.3
2023-05-06T01:47:29.579Z,1001.3
2023-05-06T01:48:45.858Z,1001.3
2023-05-06T01:50:02.142Z,1001.3
2023-05-06T01:51:18.441Z,1001.3
2023-05-06T01:52:34.735Z,1001.3
2023-05-06T01:53:51.025Z,1001.3
2023-05-06T01:55:07.343Z,1001.3
2023-05-06T01:56:23.624Z,1001.3
2023-05-06T01:57:39.933Z,1001.3
2023-05-06T01:58:55.231Z,1001.2
2023-05-06T02:00:11.532Z,1001.2
2023-05-06T02:01:27.805Z,1001.2
2023-05-06T02:02:44.135Z,1001.2
2023-05-06T02:04:00.432Z,1001.2
2023-05-06T02:05:16.684Z,1001.2
2023-05-06T02:06:32.981Z,1001.2
2023-05-06T02:07:49.269Z,1001.2
2023-05-06T02:09:05.596Z,1001.1
2023-05-06T02:10:21.881Z,1001.2
2023-05-06T02:11:38.151Z,1001.1
2023-05-06T02:12:54.473Z,1001.1
2023-05-06T02:14:10.746Z,1001.1
2023-05-06T02:15:26.072Z,1001.1
2023-05-06T02:16:42.358Z,1001.1
2023-05-06T02:17:58.637Z,1001.1
2023-05-06T02:19:14.939Z,1001.2
2023-05-06T02:20:31.250Z,1001.2
2023-05-06T02:21:47.529Z,1001.1
2023-05-06T02:23:03.831Z,1001.1
2023-05-06T02:24:20.109Z,1001.1
2023-05-06T02:25:36.401Z,1001.1
2023-05-06T02:26:52.693Z,1001.1
2023-05-06T02:28:09.012Z,1001.1
2023-05-06T02:29:25.316Z,1001.2
2023-05-06T02:30:41.576Z,1001.1
2023-05-06T02:31:56.897Z,1001.1
2023-05-06T02:33:13.193Z,1001.1
2023-05-06T02:34:29.476Z,1001.1
2023-05-06T02:35:45.798Z,1001.1
2023-05-06T02:37:02.075Z,1001.1
2023-05-06T02:38:18.380Z,1001.1
2023-05-06T02:39:34.669Z,1001.1
2023-05-06T02:40:50.982Z,1001.2
2023-05-06T02:42:07.248Z,1001.2
2023-05-06T02:43:23.548Z,1001.2
2023-05-06T02:44:39.828Z,1001.1
2023-05-06T02:45:56.139Z,1001.1
2023-05-06T02:47:12.415Z,1001.1
2023-05-06T02:48:27.747Z,1001.2
2023-05-06T02:49:44.018Z,1001.2
2023-05-06T02:51:00.309Z,1001.1
2023-05-06T02:52:16.618Z,1001.1
2023-05-06T02:53:32.929Z,1001.1
2023-05-06T02:54:49.196Z,1001.2
2023-05-06T02:56:04.520Z,1001.1
2023-05-06T02:57:20.814Z,1001.1
2023-05-06T02:58:37.121Z,1001.1
2023-05-06T02:59:53.399Z,1001.1
2023-05-06T03:01:09.711Z,1001.2
2023-05-06T03:02:25.986Z,1001.1
2023-05-06T03:03:42.275Z,1001.1
2023-05-06T03:04:58.562Z,1001.1
2023-05-06T03:06:14.869Z,1001.1
2023-05-06T03:07:31.149Z,1001.1
2023-05-06T03:08:47.427Z,1001.1
2023-05-06T03:10:03.686Z,1001.1
2023-05-06T03:11:19.963Z,1001.1
2023-05-06T03:12:35.205Z,1001.1
2023-05-06T03:13:51.443Z,1001
2023-05-06T03:15:07.691Z,1001.1
2023-05-06T03:16:23.909Z,1001.1
2023-05-06T03:17:40.168Z,1001.1
2023-05-06T03:18:56.425Z,1001.1
2023-05-06T03:20:12.645Z,1001.1
2023-05-06T03:21:28.874Z,1001.1
2023-05-06T03:22:45.130Z,1001.1
2023-05-06T03:24:01.357Z,1001.1
2023-05-06T03:25:17.598Z,1001.2
2023-05-06T03:26:33.833Z,1001.1
2023-05-06T03:29:06.341Z,1001.2
2023-05-06T03:30:21.575Z,1001.2
2023-05-06T03:31:37.839Z,1001.1
2023-05-06T03:32:54.050Z,1001.1
2023-05-06T03:34:10.291Z,1001.1
2023-05-06T03:35:26.527Z,1001
2023-05-06T03:36:42.793Z,1001.1
2023-05-06T03:37:59.018Z,1001.1
2023-05-06T03:39:15.255Z,1001.1
2023-05-06T03:40:31.491Z,1001.1
2023-05-06T03:41:47.749Z,1001.1
2023-05-06T03:43:03.977Z,1001.1
2023-05-06T03:44:20.210Z,1001.1
2023-05-06T03:45:36.443Z,1001
2023-05-06T03:46:51.717Z,1001
2023-05-06T03:48:07.946Z,1001
2023-05-06T03:49:24.179Z,1001
2023-05-06T03:50:40.430Z,1001
2023-05-06T03:51:56.661Z,1001.1
2023-05-06T03:53:12.903Z,1001
2023-05-06T03:54:29.152Z,1001.1
2023-05-06T03:55:45.388Z,1001
2023-05-06T03:57:01.652Z,1001.1
2023-05-06T03:58:17.868Z,1001
2023-05-06T03:59:34.103Z,1001.1
2023-05-06T04:00:50.353Z,1001.1
2023-05-06T04:02:06.588Z,1001.1
2023-05-06T04:03:21.831Z,1001.1
2023-05-06T04:04:38.080Z,1001.1
2023-05-06T04:05:54.312Z,1001.2
2023-05-06T04:07:10.560Z,1001.2
2023-05-06T04:08:26.796Z,1001.1
2023-05-06T04:09:43.063Z,1001.2
2023-05-06T04:10:59.281Z,1001.2
2023-05-06T04:12:15.544Z,1001.3
2023-05-06T04:13:31.759Z,1001.2
2023-05-06T04:14:47.994Z,1001.3
2023-05-06T04:16:04.242Z,1001.3
2023-05-06T04:17:20.490Z,1001.4
2023-05-06T04:18:36.741Z,1001.4
2023-05-06T04:19:51.999Z,1001.4
2023-05-06T04:21:08.213Z,1001.4
2023-05-06T04:22:24.458Z,1001.4
2023-05-06T04:23:40.701Z,1001.4
2023-05-06T04:24:56.941Z,1001.5
2023-05-06T04:26:13.171Z,1001.5
2023-05-06T04:27:29.413Z,1001.5
2023-05-06T04:28:45.651Z,1001.5
2023-05-06T04:30:01.888Z,1001.5
2023-05-06T04:31:18.134Z,1001.5
2023-05-06T04:32:34.365Z,1001.5
2023-05-06T04:33:50.617Z,1001.6
2023-05-06T04:35:06.887Z,1001.6
2023-05-06T04:36:22.109Z,1001.6
2023-05-06T04:37:38.369Z,1001.6
2023-05-06T04:38:54.599Z,1001.6
2023-05-06T04:40:10.820Z,1001.7
2023-05-06T04:41:27.070Z,1001.7
2023-05-06T04:42:43.317Z,1001.7
2023-05-06T04:43:59.557Z,1001.7
2023-05-06T04:45:15.818Z,1001.7
2023-05-06T04:46:32.026Z,1001.7
2023-05-06T04:47:48.295Z,1001.9
2023-05-06T04:49:04.529Z,1001.8
2023-05-06T04:50:20.745Z,1001.8
2023-05-06T04:51:36.984Z,1001.9
2023-05-06T04:52:52.271Z,1001.8
2023-05-06T04:54:08.490Z,1001.8
2023-05-06T04:55:24.719Z,1001.9
2023-05-06T04:56:40.973Z,1002
2023-05-06T04:57:57.240Z,1001.9
2023-05-06T04:59:13.449Z,1001.8
2023-05-06T05:00:29.683Z,1001.8
2023-05-06T05:01:45.948Z,1001.8
2023-05-06T05:03:02.154Z,1001.9
2023-05-06T05:04:18.429Z,1001.9
2023-05-06T05:05:34.648Z,1001.9
2023-05-06T05:06:50.882Z,1001.9
2023-05-06T05:08:07.122Z,1001.9
2023-05-06T05:09:22.381Z,1001.9
2023-05-06T05:10:38.627Z,1001.9
2023-05-06T05:11:54.853Z,1001.9
2023-05-06T05:13:11.090Z,1002
2023-05-06T05:14:27.333Z,1002
2023-05-06T05:15:43.582Z,1002
2023-05-06T05:16:59.816Z,1002
2023-05-06T05:18:16.060Z,1002
2023-05-06T05:19:32.286Z,1002
2023-05-06T05:20:48.570Z,1002
2023-05-06T05:22:04.768Z,1002.1
2023-05-06T05:23:21.007Z,1002.1
2023-05-06T05:24:37.264Z,1002.1
2023-05-06T05:25:52.509Z,1002.1
2023-05-06T05:27:08.746Z,1002.1
2023-05-06T05:28:25.014Z,1002.1
2023-05-06T05:29:41.231Z,1002.1
2023-05-06T05:30:57.476Z,1002.1
2023-05-06T05:32:13.744Z,1002.1
2023-05-06T05:33:29.954Z,1002
2023-05-06T05:34:46.181Z,1002.1
2023-05-06T05:36:02.465Z,1002.1
2023-05-06T05:37:18.661Z,1002
2023-05-06T05:38:34.938Z,1002
2023-05-06T05:39:51.142Z,1002
2023-05-06T05:41:07.388Z,1002.1
2023-05-06T05:42:22.636Z,1002.1
2023-05-06T05:43:38.913Z,1002
2023-05-06T05:44:55.118Z,1002.1
2023-05-06T05:46:11.385Z,1002
2023-05-06T05:47:27.608Z,1002
2023-05-06T05:48:43.873Z,1002.1
2023-05-06T05:50:00.074Z,1002.1
2023-05-06T05:51:16.355Z,1002.1
2023-05-06T05:52:32.565Z,1002.1
2023-05-06T05:53:48.827Z,1002.1
2023-05-06T05:55:05.036Z,1002.2
2023-05-06T05:56:21.318Z,1002.1
2023-05-06T05:57:37.524Z,1002.3
2023-05-06T05:58:52.774Z,1002.2
2023-05-06T06:00:09.012Z,1002.2
2023-05-06T06:01:25.249Z,1002.2
2023-05-06T06:02:41.526Z,1002.2
2023-05-06T06:03:57.763Z,1002.3
2023-05-06T06:05:13.982Z,1002.3
2023-05-06T06:06:30.219Z,1002.3
2023-05-06T06:07:46.479Z,1002.3
2023-05-06T06:09:02.694Z,1002.3
2023-05-06T06:10:18.960Z,1002.3
2023-05-06T06:11:35.201Z,1002.3
2023-05-06T06:12:51.440Z,1002.3
2023-05-06T06:14:07.655Z,1002.3
2023-05-06T06:15:22.910Z,1002.3
2023-05-06T06:16:39.154Z,1002.4
2023-05-06T06:17:55.426Z,1002.4
2023-05-06T06:19:11.620Z,1002.4
2023-05-06T06:20:27.861Z,1002.4
2023-05-06T06:21:44.113Z,1002.4
2023-05-06T06:23:00.386Z,1002.5
2023-05-06T06:24:16.624Z,1002.5
2023-05-06T06:25:32.832Z,1002.5
2023-05-06T06:26:49.094Z,1002.5
2023-05-06T06:28:05.304Z,1002.6
2023-05-06T06:29:21.547Z,1002.5
2023-05-06T06:30:37.796Z,1002.5
2023-05-06T06:31:53.043Z,1002.4
2023-05-06T06:33:09.273Z,1002.4
2023-05-06T06:34:25.550Z,1002.5
2023-05-06T06:35:41.768Z,1002.4
2023-05-06T06:36:58.033Z,1002.5
2023-05-06T06:38:14.243Z,1002.5
2023-05-06T06:39:30.473Z,1002.5
2023-05-06T06:40:46.728Z,1002.5
2023-05-06T06:42:02.961Z,1002.5
2023-05-06T06:43:19.234Z,1002.6
2023-05-06T06:44:35.435Z,1002.6
2023-05-06T06:45:51.691Z,1002.6
2023-05-06T06:47:07.958Z,1002.5
2023-05-06T06:48:23.178Z,1002.5
2023-05-06T06:49:39.453Z,1002.5
2023-05-06T06:50:55.665Z,1002.5
2023-05-06T06:52:11.922Z,1002.5
2023-05-06T06:53:28.145Z,1002.5
2023-05-06T06:54:44.369Z,1002.6
2023-05-06T06:56:00.620Z,1002.6
2023-05-06T06:57:16.845Z,1002.6
2023-05-06T06:58:33.106Z,1002.6
2023-05-06T06:59:49.366Z,1002.6
2023-05-06T07:01:05.604Z,1002.6
2023-05-06T07:02:21.841Z,1002.7
2023-05-06T07:03:38.056Z,1002.7
2023-05-06T07:04:53.336Z,1002.7
2023-05-06T07:06:09.542Z,1002.7
2023-05-06T07:07:25.792Z,1002.7
2023-05-06T07:08:42.028Z,1002.8
2023-05-06T07:09:58.277Z,1002.8
2023-05-06T07:11:13.523Z,1002.8
2023-05-06T07:12:29.796Z,1002.9
2023-05-06T07:13:46.017Z,1002.8
2023-05-06T07:15:02.248Z,1002.9
2023-05-06T07:16:18.497Z,1002.9
2023-05-06T07:17:34.739Z,1003
2023-05-06T07:18:50.974Z,1003
2023-05-06T07:20:07.237Z,1003
2023-05-06T07:21:23.488Z,1003
2023-05-06T07:22:39.734Z,1003
2023-05-06T07:23:55.923Z,1003
2023-05-06T07:25:12.169Z,1003
2023-05-06T07:26:28.400Z,1003.1
2023-05-06T07:27:43.702Z,1003.1
2023-05-06T07:28:59.910Z,1003.1
2023-05-06T07:30:16.175Z,1003.1
2023-05-06T07:31:32.402Z,1003.1
2023-05-06T07:32:48.634Z,1003.1
2023-05-06T07:34:04.900Z,1003.2
2023-05-06T07:35:21.142Z,1003.3
2023-05-06T07:36:37.355Z,1003.3
2023-05-06T07:37:53.613Z,1003.3
2023-05-06T07:39:09.828Z,1003.3
2023-05-06T07:40:26.073Z,1003.3
2023-05-06T07:41:42.331Z,1003.3
2023-05-06T07:42:58.568Z,1003.2
2023-05-06T07:44:13.821Z,1003.3
2023-05-06T07:45:30.058Z,1003.3
2023-05-06T07:46:46.305Z,1003.3
2023-05-06T07:48:02.541Z,1003.3
2023-05-06T07:49:18.794Z,1003.3
2023-05-06T07:50:35.019Z,1003.4
2023-05-06T07:51:51.273Z,1003.3
2023-05-06T07:53:07.508Z,1003.3
2023-05-06T07:54:23.739Z,1003.4
2023-05-06T07:55:39.996Z,1003.3
2023-05-06T07:56:56.229Z,1003.4
2023-05-06T07:58:12.451Z,1003.4
2023-05-06T07:59:28.689Z,1003.5
2023-05-06T08:00:43.964Z,1003.5
2023-05-06T08:02:00.193Z,1003.5
2023-05-06T08:03:16.456Z,1003.5
2023-05-06T08:04:32.683Z,1003.5
2023-05-06T08:05:48.895Z,1003.5
2023-05-06T08:07:05.151Z,1003.5
2023-05-06T08:08:21.377Z,1003.5
2023-05-06T08:09:37.627Z,1003.5
2023-05-06T08:10:53.878Z,1003.5
2023-05-06T08:12:10.094Z,1003.5
2023-05-06T08:13:26.336Z,1003.5
2023-05-06T08:14:42.573Z,1003.5
2023-05-06T08:15:58.854Z,1003.5
2023-05-06T08:17:14.088Z,1003.7
2023-05-06T08:18:30.329Z,1003.5
2023-05-06T08:19:46.554Z,1003.6
2023-05-06T08:21:02.800Z,1003.6
2023-05-06T08:22:19.042Z,1003.6
2023-05-06T08:23:35.277Z,1003.6
2023-05-06T08:24:51.517Z,1003.6
2023-05-06T08:26:07.757Z,1003.6
2023-05-06T08:27:24.005Z,1003.6
2023-05-06T08:28:40.245Z,1003.6
2023-05-06T08:29:56.484Z,1003.6
2023-05-06T08:31:12.718Z,1003.6
2023-05-06T08:32:28.953Z,1003.6
2023-05-06T08:33:44.209Z,1003.7
2023-05-06T08:35:00.447Z,1003.7
2023-05-06T08:36:16.703Z,1003.7
2023-05-06T08:37:32.940Z,1003.7
2023-05-06T08:38:49.170Z,1003.7
2023-05-06T08:40:05.415Z,1003.7
2023-05-06T08:41:21.648Z,1003.7
2023-05-06T08:42:37.910Z,1003.7
2023-05-06T08:43:54.148Z,1003.7
2023-05-06T08:45:10.363Z,1003.8
2023-05-06T08:46:26.603Z,1003.7
2023-05-06T08:47:42.842Z,1003.8
2023-05-06T08:48:59.112Z,1003.8
2023-05-06T08:50:14.352Z,1003.8
2023-05-06T08:51:30.593Z,1003.8
2023-05-06T08:52:46.842Z,1003.8
2023-05-06T08:54:03.098Z,1003.9
2023-05-06T08:55:19.304Z,1003.9
2023-05-06T08:56:35.565Z,1003.9
2023-05-06T08:57:51.781Z,1003.9
2023-05-06T08:59:08.047Z,1003.9
2023-05-06T09:00:24.259Z,1003.8
2023-05-06T09:01:40.497Z,1003.8
2023-05-06T09:02:56.750Z,1003.8
2023-05-06T09:04:12.979Z,1003.8
2023-05-06T09:05:29.222Z,1003.8
2023-05-06T09:06:44.470Z,1003.8
2023-05-06T09:08:00.713Z,1003.7
2023-05-06T09:09:16.965Z,1003.8
2023-05-06T09:10:33.207Z,1003.8
2023-05-06T09:11:49.433Z,1003.8
2023-05-06T09:13:05.670Z,1003.8
2023-05-06T09:14:21.943Z,1003.8
2023-05-06T09:15:38.159Z,1003.8
2023-05-06T09:16:54.406Z,1003.8
2023-05-06T09:18:10.653Z,1003.7
2023-05-06T09:19:26.904Z,1003.7
2023-05-06T09:20:43.137Z,1003.7
2023-05-06T09:21:59.357Z,1003.7
2023-05-06T09:23:14.619Z,1003.8
2023-05-06T09:24:30.848Z,1003.7
2023-05-06T09:25:47.104Z,1003.7
2023-05-06T09:27:03.354Z,1003.8
2023-05-06T09:28:19.575Z,1003.7
2023-05-06T09:29:35.818Z,1003.8
2023-05-06T09:30:52.058Z,1003.8
2023-05-06T09:32:08.000Z,1003.8
2023-05-06T09:34:40.776Z,1003.7
2023-05-06T09:35:57.028Z,1003.7
2023-05-06T09:37:13.256Z,1003.8
2023-05-06T09:38:29.481Z,1003.8
2023-05-06T09:39:44.739Z,1003.8
2023-05-06T09:41:01.000Z,1003.8
2023-05-06T09:42:17.224Z,1003.7
2023-05-06T09:43:33.476Z,1003.7
2023-05-06T09:44:49.707Z,1003.7
2023-05-06T09:46:05.949Z,1003.8
2023-05-06T09:47:22.178Z,1003.8
2023-05-06T09:48:38.424Z,1003.8
2023-05-06T09:49:54.693Z,1003.8
2023-05-06T09:51:10.923Z,1003.8
2023-05-06T09:52:27.136Z,1003.8
2023-05-06T09:53:43.407Z,1003.9
2023-05-06T09:54:59.616Z,1003.9
2023-05-06T09:56:14.891Z,1003.9
2023-05-06T09:57:31.143Z,1003.9
2023-05-06T09:58:47.380Z,1003.9
2023-05-06T10:00:03.594Z,1003.9
2023-05-06T10:01:19.831Z,1003.9
2023-05-06T10:02:36.083Z,1003.9
2023-05-06T10:05:08.562Z,1003.9
2023-05-06T10:06:24.809Z,1003.9
2023-05-06T10:07:41.045Z,1003.9
2023-05-06T10:08:57.290Z,1003.9
2023-05-06T10:10:13.513Z,1003.9
2023-05-06T10:11:29.758Z,1004
2023-05-06T10:12:45.041Z,1003.9
2023-05-06T10:14:01.274Z,1003.9
2023-05-06T10:15:17.532Z,1003.9
2023-05-06T10:16:33.752Z,1003.9
2023-05-06T10:17:49.972Z,1003.9
2023-05-06T10:19:06.211Z,1003.9
2023-05-06T10:20:22.444Z,1003.9
2023-05-06T10:21:38.685Z,1003.8
2023-05-06T10:22:54.967Z,1003.8
2023-05-06T10:24:11.176Z,1003.8
2023-05-06T10:25:27.437Z,1003.8
2023-05-06T10:26:43.646Z,1003.8
2023-05-06T10:27:59.888Z,1003.8
2023-05-06T10:29:15.146Z,1003.8
2023-05-06T10:30:31.410Z,1003.8
2023-05-06T10:31:47.627Z,1003.8
2023-05-06T10:33:03.872Z,1003.8
2023-05-06T10:35:36.347Z,1003.7
2023-05-06T10:36:52.610Z,1003.7
2023-05-06T10:38:08.828Z,1003.8
2023-05-06T10:39:25.075Z,1003.7
2023-05-06T10:40:41.305Z,1003.7
2023-05-06T10:41:57.540Z,1003.7
2023-05-06T10:43:13.784Z,1003.7
2023-05-06T10:44:30.033Z,1003.7
2023-05-06T10:45:45.274Z,1003.7
2023-05-06T10:47:01.521Z,1003.7
2023-05-06T10:48:17.755Z,1003.8
2023-05-06T10:49:34.005Z,1003.7
2023-05-06T10:50:50.235Z,1003.7
2023-05-06T10:52:06.470Z,1003.6
2023-05-06T10:53:22.715Z,1003.7
2023-05-06T10:54:38.962Z,1003.7
2023-05-06T10:55:55.225Z,1003.7
2023-05-06T10:57:11.432Z,1003.7
2023-05-06T10:58:27.671Z,1003.7
2023-05-06T10:59:43.921Z,1003.6
2023-05-06T11:01:00.177Z,1003.6
2023-05-06T11:02:15.404Z,1003.6
2023-05-06T11:03:31.645Z,1003.7
2023-05-06T11:04:47.897Z,1003.6
2023-05-06T11:06:04.171Z,1003.6
2023-05-06T11:07:20.393Z,1003.6
2023-05-06T11:08:36.609Z,1003.6
2023-05-06T11:09:52.892Z,1003.6
2023-05-06T11:11:09.094Z,1003.6
2023-05-06T11:12:25.358Z,1003.6
2023-05-06T11:13:41.576Z,1003.6
2023-05-06T11:14:57.806Z,1003.6
2023-05-06T11:16:14.048Z,1003.6
2023-05-06T11:17:30.286Z,1003.7
2023-05-06T11:18:45.550Z,1003.7
2023-05-06T11:20:01.814Z,1003.7
2023-05-06T11:21:18.027Z,1003.7
2023-05-06T11:22:34.289Z,1003.7
2023-05-06T11:23:50.517Z,1003.7
2023-05-06T11:25:06.756Z,1003.7
2023-05-06T11:26:22.007Z,1003.7
2023-05-06T11:27:38.238Z,1003.8
2023-05-06T11:28:54.484Z,1003.8
2023-05-06T11:31:26.959Z,1003.8
2023-05-06T11:32:43.198Z,1003.9
2023-05-06T11:33:59.468Z,1003.9
2023-05-06T11:36:31.959Z,1003.9
2023-05-06T11:37:48.188Z,1003.9
2023-05-06T11:39:04.408Z,1003.9
2023-05-06T11:41:36.894Z,1003.9
2023-05-06T11:42:52.152Z,1003.9
2023-05-06T11:44:07.406Z,1003.9
2023-05-06T11:45:22.687Z,1003.9
2023-05-06T11:46:37.917Z,1003.9
2023-05-06T11:47:53.181Z,1003.9
2023-05-06T11:49:08.443Z,1003.9
2023-05-06T11:50:23.705Z,1004
2023-05-06T11:51:38.982Z,1004
2023-05-06T11:52:54.212Z,1004
2023-05-06T11:54:09.499Z,1004
2023-05-06T11:55:25.704Z,1004
2023-05-06T11:56:41.943Z,1004
2023-05-06T11:57:58.189Z,1004.1
2023-05-06T11:59:14.436Z,1004.1
2023-05-06T12:00:30.667Z,1004.1
2023-05-06T12:01:46.907Z,1004.1
2023-05-06T12:03:03.173Z,1004.2
2023-05-06T12:04:19.388Z,1004.1
2023-05-06T12:05:35.627Z,1004.1
2023-05-06T12:06:50.915Z,1004.1
2023-05-06T12:08:06.143Z,1004.2
2023-05-06T12:09:22.414Z,1004.2
2023-05-06T12:10:38.630Z,1004.1
2023-05-06T12:11:54.856Z,1004.1
2023-05-06T12:13:11.112Z,1004.2
2023-05-06T12:14:27.341Z,1004.2
2023-05-06T12:15:43.577Z,1004.1
2023-05-06T12:16:59.846Z,1004.2
2023-05-06T12:18:16.070Z,1004.1
2023-05-06T12:19:32.311Z,1004.2
2023-05-06T12:20:48.549Z,1004.2
2023-05-06T12:22:04.781Z,1004.2
2023-05-06T12:23:21.014Z,1004.2
2023-05-06T12:24:36.298Z,1004.2
2023-05-06T12:25:52.515Z,1004.2
2023-05-06T12:27:08.760Z,1004.2
2023-05-06T12:28:24.992Z,1004.2
2023-05-06T12:29:41.235Z,1004.2
2023-05-06T12:30:57.476Z,1004.2
2023-05-06T12:32:13.744Z,1004.2
2023-05-06T12:33:28.967Z,1004.3
2023-05-06T12:34:45.332Z,1004.2
2023-05-06T12:36:01.567Z,1004.2
2023-05-06T12:37:17.822Z,1004.3
2023-05-06T12:38:34.050Z,1004.3
2023-05-06T12:39:50.301Z,1004.2
2023-05-06T12:41:06.540Z,1004.2
2023-05-06T12:42:22.786Z,1004.2
2023-05-06T12:43:39.008Z,1004.2
2023-05-06T12:44:55.260Z,1004.2
2023-05-06T12:46:11.500Z,1004.2
2023-05-06T12:47:27.763Z,1004.2
2023-05-06T12:48:44.000Z,1004.2
2023-05-06T12:50:00.228Z,1004.3
2023-05-06T12:51:16.579Z,1004.2
2023-05-06T12:52:32.823Z,1004.2
2023-05-06T12:53:49.067Z,1004.2
2023-05-06T12:55:05.329Z,1004.2
2023-05-06T12:56:21.530Z,1004.2
2023-05-06T12:57:37.768Z,1004.2
2023-05-06T12:58:54.011Z,1004.2
2023-05-06T13:00:09.317Z,1004.2
2023-05-06T13:01:24.527Z,1004.2
2023-05-06T13:02:39.820Z,1004.1
2023-05-06T13:03:55.047Z,1004.1
2023-05-06T13:05:11.290Z,1004.1
2023-05-06T13:06:27.529Z,1004.1
2023-05-06T13:07:43.798Z,1004.2
2023-05-06T13:09:00.006Z,1004.1
2023-05-06T13:10:16.254Z,1004.1
2023-05-06T13:11:32.493Z,1004.2
2023-05-06T13:12:48.760Z,1004.2
2023-05-06T13:14:05.004Z,1004.1
2023-05-06T13:15:21.207Z,1004.1
2023-05-06T13:16:37.483Z,1004.1
2023-05-06T13:17:53.681Z,1004.1
2023-05-06T13:19:09.932Z,1004.1
2023-05-06T13:20:25.175Z,1004.1
2023-05-06T13:21:41.417Z,1004.1
2023-05-06T13:22:57.695Z,1004.1
2023-05-06T13:24:13.895Z,1004.1
2023-05-06T13:25:30.172Z,1004.1
2023-05-06T13:26:46.392Z,1004.2
2023-05-06T13:28:02.611Z,1004.1
2023-05-06T13:29:17.883Z,1004.2
2023-05-06T13:30:33.129Z,1004.2
2023-05-06T13:31:48.403Z,1004.2
2023-05-06T13:33:03.655Z,1004.2
2023-05-06T13:34:19.896Z,1004.2
2023-05-06T13:35:36.126Z,1004.2
2023-05-06T13:36:52.368Z,1004.2
2023-05-06T13:38:08.619Z,1004.3
2023-05-06T13:39:24.852Z,1004.2
2023-05-06T13:40:41.090Z,1004.2
2023-05-06T13:41:57.340Z,1004.2
2023-05-06T13:43:13.569Z,1004.2
2023-05-06T13:44:29.812Z,1004.2
2023-05-06T13:45:46.048Z,1004.1
2023-05-06T13:47:02.321Z,1004.2
2023-05-06T13:48:18.533Z,1004.2
2023-05-06T13:49:33.782Z,1004.2
2023-05-06T13:50:50.031Z,1004.2
2023-05-06T13:52:06.276Z,1004.2
2023-05-06T13:53:22.511Z,1004.2
2023-05-06T13:54:38.775Z,1004.2
2023-05-06T13:55:55.016Z,1004.2
2023-05-06T13:57:11.221Z,1004.2
2023-05-06T13:58:26.479Z,1004.2
2023-05-06T13:59:41.748Z,1004.3
2023-05-06T14:00:57.011Z,1004.2
2023-05-06T14:02:12.268Z,1004.2
2023-05-06T14:03:28.527Z,1004.2
2023-05-06T14:04:44.751Z,1004.2
2023-05-06T14:06:00.981Z,1004.2
2023-05-06T14:07:17.219Z,1004.2
2023-05-06T14:08:33.464Z,1004.2
2023-05-06T14:09:49.703Z,1004.2
2023-05-06T14:11:05.949Z,1004.2
2023-05-06T14:12:22.210Z,1004.2
2023-05-06T14:13:38.411Z,1004.2
2023-05-06T14:14:54.653Z,1004.2
2023-05-06T14:16:10.894Z,1004.2
2023-05-06T14:17:27.137Z,1004.2
2023-05-06T14:18:42.000Z,1004.2
2023-05-06T14:19:58.625Z,1004.2
2023-05-06T14:21:14.863Z,1004.2
2023-05-06T14:22:31.105Z,1004.2
2023-05-06T14:23:47.346Z,1004.1
2023-05-06T14:25:03.592Z,1004.1
2023-05-06T14:26:19.833Z,1004.1
2023-05-06T14:27:35.121Z,1004.1
2023-05-06T14:28:50.338Z,1004.1
2023-05-06T14:30:06.581Z,1004.1
2023-05-06T14:31:22.835Z,1004.1
2023-05-06T14:32:39.078Z,1004.2
2023-05-06T14:33:55.316Z,1004.2
2023-05-06T14:35:11.590Z,1004.1
2023-05-06T14:36:27.786Z,1004.2
2023-05-06T14:37:44.021Z,1004.2
2023-05-06T14:39:00.260Z,1004.1
2023-05-06T14:40:16.499Z,1004.1
2023-05-06T14:41:32.742Z,1004.2
2023-05-06T14:42:48.990Z,1004.2
2023-05-06T14:44:05.263Z,1004.2
2023-05-06T14:45:20.480Z,1004.2
2023-05-06T14:46:36.726Z,1004.1
2023-05-06T14:47:52.953Z,1004.2
2023-05-06T14:49:09.243Z,1004.2
2023-05-06T14:50:25.430Z,1004.2
2023-05-06T14:51:41.686Z,1004.2
2023-05-06T14:52:57.947Z,1004.1
2023-05-06T14:54:13.217Z,1004.1
2023-05-06T14:55:28.434Z,1004.1
2023-05-06T14:56:43.696Z,1004.1
2023-05-06T14:57:58.944Z,1004.1
2023-05-06T14:59:14.248Z,1004.2
2023-05-06T15:00:29.000Z,1004.2
2023-05-06T15:01:45.716Z,1004.2
2023-05-06T15:03:01.952Z,1004.2
2023-05-06T15:04:18.197Z,1004.2
2023-05-06T15:05:34.421Z,1004.2
2023-05-06T15:06:50.661Z,1004.2
2023-05-06T15:08:06.915Z,1004.2
2023-05-06T15:09:23.142Z,1004.2
2023-05-06T15:10:39.380Z,1004.2
2023-05-06T15:11:55.628Z,1004.2
2023-05-06T15:13:11.899Z,1004.2
2023-05-06T15:14:28.101Z,1004.2
2023-05-06T15:15:44.339Z,1004.2
2023-05-06T15:16:59.601Z,1004.3
2023-05-06T15:18:15.879Z,1004.2
2023-05-06T15:19:32.073Z,1004.3
2023-05-06T15:20:48.323Z,1004.3
2023-05-06T15:22:04.601Z,1004.3
2023-05-06T15:23:20.809Z,1004.3
2023-05-06T15:24:37.032Z,1004.3
2023-05-06T15:25:52.310Z,1004.3
2023-05-06T15:27:07.557Z,1004.2
2023-05-06T15:28:22.816Z,1004.2
2023-05-06T15:29:38.082Z,1004.2
2023-05-06T15:30:53.327Z,1004.3
2023-05-06T15:32:08.627Z,1004.2
2023-05-06T15:33:24.842Z,1004.3
2023-05-06T15:34:41.102Z,1004.3
2023-05-06T15:35:57.315Z,1004.2
2023-05-06T15:37:13.000Z,1004.3
2023-05-06T15:38:29.797Z,1004.2
2023-05-06T15:39:46.027Z,1004.2
2023-05-06T15:41:01.288Z,1004.3
2023-05-06T15:42:17.522Z,1004.3
2023-05-06T15:43:33.767Z,1004.3
2023-05-06T15:44:50.012Z,1004.3
2023-05-06T15:46:06.254Z,1004.4
2023-05-06T15:47:22.482Z,1004.4
2023-05-06T15:48:38.736Z,1004.4
2023-05-06T15:49:55.018Z,1004.4
2023-05-06T15:51:11.201Z,1004.3
2023-05-06T15:52:27.485Z,1004.4
2023-05-06T15:53:43.686Z,1004.4
2023-05-06T15:54:59.936Z,1004.4
2023-05-06T15:56:16.169Z,1004.5
2023-05-06T15:57:31.434Z,1004.4
2023-05-06T15:58:46.724Z,1004.5
2023-05-06T16:00:02.918Z,1004.6
2023-05-06T16:01:19.161Z,1004.5
2023-05-06T16:02:35.441Z,1004.5